Time;durP1;ratioP1;P1;durP2;ratioP2;P2;SDS_P1;SDS_P2;PMS_P1;PMS_P2;Temp;Humidity;BMP_temperature;BMP_pressure;BME280_temperature;BME280_humidity;BME280_pressure;Samples;Min_cycle;Max_cycle;Signal;HPM_P1;HPM_P2
2022/12/13 00:01:54;;;;;;;15.70;10.30;;;-1.00;99.90;;;;;;4981153;28;20617;-85
2022/12/13 00:04:23;;;;;;;11.02;8.73;;;-1.10;99.90;;;;;;4982806;28;20210;-84
2022/12/13 00:06:52;;;;;;;16.05;10.50;;;-1.20;99.90;;;;;;4980038;28;20215;-86
2022/12/13 00:09:23;;;;;;;14.18;11.07;;;-1.20;99.90;;;;;;4977400;28;20215;-85
2022/12/13 00:11:56;;;;;;;14.98;9.82;;;-1.20;99.90;;;;;;4974572;28;20193;-84
2022/12/13 00:14:28;;;;;;;11.85;9.13;;;-1.10;99.90;;;;;;4981369;28;20215;-85
2022/12/13 00:16:55;;;;;;;11.50;8.95;;;-1.10;99.90;;;;;;4983111;28;20217;-81
2022/12/13 00:19:25;;;;;;;15.50;10.40;;;-1.00;99.90;;;;;;4980151;28;20203;-86
2022/12/13 00:21:52;;;;;;;15.73;12.15;;;-1.10;99.90;;;;;;4980902;28;20234;-85
2022/12/13 00:24:21;;;;;;;10.57;8.00;;;-1.10;99.90;;;;;;4994402;28;20497;-87
2022/12/13 00:26:58;;;;;;;13.05;8.63;;;-1.10;99.90;;;;;;4984115;28;20293;-82
2022/12/13 00:29:28;;;;;;;15.27;11.07;;;-1.10;99.90;;;;;;4995906;28;20237;-81
2022/12/13 00:31:55;;;;;;;12.65;9.02;;;-1.10;99.90;;;;;;4986593;28;20202;-81
2022/12/13 00:34:27;;;;;;;13.65;10.38;;;-1.10;99.90;;;;;;4975621;28;20227;-82
2022/12/13 00:36:55;;;;;;;10.98;9.48;;;-1.10;99.90;;;;;;4975503;28;20210;-81
2022/12/13 00:39:22;;;;;;;13.63;10.02;;;-1.20;99.90;;;;;;4976409;28;20490;-83
2022/12/13 00:41:52;;;;;;;11.93;8.38;;;-1.20;99.90;;;;;;4972544;28;20226;-82
2022/12/13 00:44:21;;;;;;;17.80;11.77;;;-1.20;99.90;;;;;;4976450;28;20269;-81
2022/12/13 00:46:50;;;;;;;12.05;9.38;;;-1.20;99.90;;;;;;4979268;28;20699;-82
2022/12/13 00:49:18;;;;;;;11.63;9.07;;;-1.10;99.90;;;;;;4984822;28;20273;-83
2022/12/13 00:51:48;;;;;;;14.25;10.18;;;-1.20;99.90;;;;;;4990174;28;20254;-83
2022/12/13 00:54:17;;;;;;;13.50;10.35;;;-1.20;99.90;;;;;;4975279;28;20270;-83
2022/12/13 00:56:44;;;;;;;13.77;9.85;;;-1.10;99.90;;;;;;4981812;28;20222;-79
2022/12/13 00:59:13;;;;;;;13.05;10.23;;;-1.10;99.90;;;;;;4986232;28;20211;-83
2022/12/13 01:01:41;;;;;;;12.48;9.65;;;-1.10;99.90;;;;;;4981823;28;20231;-81
2022/12/13 01:04:09;;;;;;;16.30;11.23;;;-1.10;99.90;;;;;;4980784;28;20202;-85
2022/12/13 01:06:40;;;;;;;13.63;9.88;;;-1.20;99.90;;;;;;4975750;28;20640;-81
2022/12/13 01:09:19;;;;;;;13.90;10.55;;;-1.20;99.90;;;;;;4979632;28;20409;-83
2022/12/13 01:11:48;;;;;;;14.18;10.98;;;-1.30;99.90;;;;;;4973142;28;20203;-82
2022/12/13 01:14:18;;;;;;;12.55;10.98;;;-1.20;99.90;;;;;;4985089;28;20250;-81
2022/12/13 01:16:47;;;;;;;13.77;10.27;;;-1.20;99.90;;;;;;5004135;28;20206;-81
2022/12/13 01:19:14;;;;;;;16.42;10.38;;;-1.20;99.90;;;;;;4984542;28;20206;-84
2022/12/13 01:21:42;;;;;;;11.27;9.82;;;-1.20;99.90;;;;;;5002350;28;20238;-82
2022/12/13 01:24:11;;;;;;;16.52;10.13;;;-1.20;99.90;;;;;;4992263;28;20275;-80
2022/12/13 01:26:41;;;;;;;17.50;11.05;;;-1.30;99.90;;;;;;4982893;28;20280;-81
2022/12/13 01:29:10;;;;;;;13.25;9.43;;;-1.30;99.90;;;;;;4978352;28;20201;-82
2022/12/13 01:31:40;;;;;;;14.45;10.20;;;-1.30;99.90;;;;;;4972526;28;20203;-82
2022/12/13 01:34:12;;;;;;;16.33;10.98;;;-1.30;99.90;;;;;;4971640;28;20384;-79
2022/12/13 01:36:41;;;;;;;15.05;10.43;;;-1.20;99.90;;;;;;4981102;28;20704;-82
2022/12/13 01:39:09;;;;;;;13.43;9.80;;;-1.20;99.90;;;;;;4974878;28;20214;-81
2022/12/13 01:41:44;;;;;;;13.80;9.30;;;-1.10;99.90;;;;;;4980739;28;20260;-83
2022/12/13 01:44:48;;;;;;;11.77;9.10;;;-1.10;99.90;;;;;;4985313;28;20692;-80
2022/12/13 01:47:24;;;;;;;13.18;10.90;;;-1.00;99.90;;;;;;4975876;28;20735;-84
2022/12/13 01:49:54;;;;;;;11.65;9.23;;;-1.00;99.90;;;;;;4978839;28;20634;-81
2022/12/13 01:52:23;;;;;;;12.40;8.98;;;-1.00;99.90;;;;;;5000955;28;20216;-83
2022/12/13 01:54:56;;;;;;;14.60;11.13;;;-1.10;99.90;;;;;;4988234;28;20207;-83
2022/12/13 01:57:32;;;;;;;11.70;8.02;;;-1.20;99.90;;;;;;4988269;28;20230;-85
2022/12/13 02:00:01;;;;;;;12.85;10.10;;;-1.20;99.90;;;;;;4979999;28;20210;-83
2022/12/13 02:02:28;;;;;;;13.95;9.48;;;-1.20;99.90;;;;;;4984230;28;20214;-81
2022/12/13 02:05:08;;;;;;;13.88;9.40;;;-1.30;99.90;;;;;;4981787;28;20215;-80
2022/12/13 02:07:39;;;;;;;11.90;9.18;;;-1.30;99.90;;;;;;4985477;28;20421;-83
2022/12/13 02:10:09;;;;;;;10.73;7.95;;;-1.20;99.90;;;;;;4987942;28;20235;-83
2022/12/13 02:12:38;;;;;;;12.68;9.68;;;-1.20;99.90;;;;;;4992695;28;20229;-83
2022/12/13 02:15:16;;;;;;;11.93;9.35;;;-1.30;99.90;;;;;;4980838;28;20214;-84
2022/12/13 02:18:35;;;;;;;11.45;7.38;;;-1.30;99.90;;;;;;4982894;28;20212;-81
2022/12/13 02:21:55;;;;;;;10.75;8.80;;;-1.30;99.90;;;;;;4944315;29;20238;-85
2022/12/13 02:24:35;;;;;;;11.70;9.30;;;-1.40;99.90;;;;;;4968015;28;20215;-81
2022/12/13 02:27:38;;;;;;;12.85;9.07;;;-1.40;99.90;;;;;;4984426;28;20207;-82
2022/12/13 02:30:29;;;;;;;12.25;8.38;;;-1.50;99.90;;;;;;4987254;28;20650;-82
2022/12/13 02:33:26;;;;;;;12.60;8.63;;;-1.50;99.90;;;;;;4981688;28;20213;-83
2022/12/13 02:36:05;;;;;;;11.50;8.48;;;-1.60;99.90;;;;;;4982908;28;20201;-83
2022/12/13 02:38:43;;;;;;;11.18;8.25;;;-1.60;99.90;;;;;;4982121;28;20274;-81
2022/12/13 02:41:20;;;;;;;9.52;8.40;;;-1.70;99.90;;;;;;4979120;28;20391;-82
2022/12/13 02:43:58;;;;;;;11.98;8.68;;;-1.60;99.90;;;;;;4975149;28;20187;-81
2022/12/13 02:46:30;;;;;;;13.73;8.98;;;-1.60;99.90;;;;;;4981049;28;20222;-83
2022/12/13 02:48:59;;;;;;;12.30;9.20;;;-1.50;99.90;;;;;;4971712;28;20258;-82
2022/12/13 02:51:28;;;;;;;11.10;8.48;;;-1.50;99.90;;;;;;4983987;28;20242;-83
2022/12/13 02:53:56;;;;;;;11.45;8.30;;;-1.60;99.90;;;;;;4972201;28;20196;-82
2022/12/13 02:56:24;;;;;;;10.65;8.68;;;-1.60;99.90;;;;;;4988655;28;20268;-83
2022/12/13 02:58:54;;;;;;;12.20;8.95;;;-1.50;99.90;;;;;;4981397;28;20418;-80
2022/12/13 03:01:48;;;;;;;12.38;9.65;;;-1.60;99.90;;;;;;4982849;28;20513;-82
2022/12/13 03:08:22;;;;;;;11.30;9.30;;;-2.00;99.90;;;;;;4975520;28;20210;-83
2022/12/13 03:11:09;;;;;;;10.40;8.38;;;-2.20;99.90;;;;;;4989851;28;20213;-80
2022/12/13 03:13:53;;;;;;;13.10;8.05;;;-2.40;99.90;;;;;;4977817;28;20214;-81
2022/12/13 03:16:45;;;;;;;12.45;8.40;;;-2.50;99.90;;;;;;4975964;28;20383;-83
2022/12/13 03:19:13;;;;;;;14.07;7.95;;;-2.50;99.90;;;;;;4971801;28;20243;-83
2022/12/13 03:21:49;;;;;;;9.75;7.97;;;-2.50;99.90;;;;;;4976003;28;20237;-80
2022/12/13 03:24:18;;;;;;;10.02;8.35;;;-2.50;99.90;;;;;;4987436;28;20202;-83
2022/12/13 03:26:48;;;;;;;9.82;8.32;;;-2.50;99.90;;;;;;4980923;28;20424;-81
2022/12/13 03:29:15;;;;;;;11.80;8.18;;;-2.60;99.90;;;;;;4988407;28;20206;-84
2022/12/13 03:31:53;;;;;;;12.45;8.50;;;-2.80;99.90;;;;;;4974325;28;20206;-83
2022/12/13 03:34:22;;;;;;;12.32;8.63;;;-2.80;99.90;;;;;;4985576;28;20200;-80
2022/12/13 03:36:51;;;;;;;11.13;7.80;;;-2.90;99.90;;;;;;4972824;28;20283;-84
2022/12/13 03:39:19;;;;;;;13.48;8.20;;;-2.90;99.90;;;;;;4973015;28;20638;-79
2022/12/13 03:41:46;;;;;;;11.95;8.30;;;-3.00;99.90;;;;;;4974520;28;20274;-84
2022/12/13 03:44:13;;;;;;;8.88;6.57;;;-3.00;99.90;;;;;;4974697;28;20200;-82
2022/12/13 03:46:58;;;;;;;9.48;6.80;;;-3.10;99.90;;;;;;4969339;28;20199;-82
2022/12/13 03:49:29;;;;;;;11.02;7.60;;;-3.10;99.90;;;;;;4980131;28;20233;-84
2022/12/13 03:52:01;;;;;;;14.48;9.73;;;-3.20;99.90;;;;;;4992424;28;20226;-80
2022/12/13 03:54:31;;;;;;;10.55;7.75;;;-3.40;99.90;;;;;;4973796;28;20203;-82
2022/12/13 03:56:59;;;;;;;8.98;7.68;;;-3.40;99.90;;;;;;4998391;28;20203;-81
2022/12/13 03:59:27;;;;;;;14.02;7.70;;;-3.30;99.90;;;;;;4976188;28;20217;-83
2022/12/13 04:01:56;;;;;;;17.20;7.70;;;-3.40;99.90;;;;;;4968051;28;20223;-82
2022/12/13 04:04:25;;;;;;;12.13;8.45;;;-3.40;99.90;;;;;;4980896;28;20208;-82
2022/12/13 04:06:53;;;;;;;10.70;7.75;;;-3.50;99.90;;;;;;4974415;28;20253;-84
2022/12/13 04:09:21;;;;;;;10.80;7.97;;;-3.40;99.90;;;;;;4987436;28;20219;-81
2022/12/13 04:14:48;;;;;;;10.45;8.05;;;-3.40;99.90;;;;;;4972672;28;20194;-81
2022/12/13 04:17:18;;;;;;;10.38;7.70;;;-3.50;99.90;;;;;;4989821;28;20449;-81
2022/12/13 04:19:46;;;;;;;16.35;10.05;;;-3.50;99.90;;;;;;4987825;28;20274;-82
2022/12/13 04:22:14;;;;;;;13.65;9.00;;;-3.40;99.90;;;;;;4981691;28;20289;-81
2022/12/13 04:24:50;;;;;;;11.80;8.60;;;-3.10;99.90;;;;;;4972312;28;20210;-82
2022/12/13 04:27:20;;;;;;;11.88;10.63;;;-2.80;99.90;;;;;;4982707;28;20220;-83
2022/12/13 04:29:47;;;;;;;9.57;7.68;;;-2.70;99.90;;;;;;4960739;28;20204;-88
2022/12/13 04:32:16;;;;;;;11.25;8.10;;;-2.60;99.90;;;;;;4991404;28;20265;-88
2022/12/13 04:34:53;;;;;;;17.00;9.00;;;-2.40;99.90;;;;;;5004600;28;20209;-84
2022/12/13 04:37:37;;;;;;;13.77;9.07;;;-2.00;99.90;;;;;;4993963;28;20300;-82
2022/12/13 04:40:11;;;;;;;12.60;7.95;;;-1.90;99.90;;;;;;4985396;28;20245;-85
2022/12/13 04:42:48;;;;;;;13.15;7.13;;;-1.80;99.90;;;;;;4979249;28;20427;-90
2022/12/13 04:45:20;;;;;;;11.43;7.53;;;-1.80;99.90;;;;;;4992698;28;20203;-87
2022/12/13 04:47:49;;;;;;;9.27;8.27;;;-1.60;99.90;;;;;;5016552;28;20206;-81
2022/12/13 04:50:17;;;;;;;13.00;8.60;;;-1.50;99.90;;;;;;5012634;28;20482;-82
2022/12/13 04:52:45;;;;;;;13.75;8.18;;;-1.20;99.90;;;;;;5000360;28;20510;-83
2022/12/13 04:55:15;;;;;;;11.43;7.43;;;-1.30;99.90;;;;;;4982399;28;20202;-82
2022/12/13 04:57:44;;;;;;;10.07;6.90;;;-1.30;99.90;;;;;;4980647;28;20219;-82
2022/12/13 05:00:13;;;;;;;8.27;6.70;;;-1.10;99.90;;;;;;4970519;28;20200;-87
2022/12/13 05:02:41;;;;;;;12.65;8.80;;;-1.10;99.90;;;;;;4974536;28;20601;-86
2022/12/13 05:05:10;;;;;;;10.77;8.73;;;-0.80;99.90;;;;;;4959775;28;20210;-83
2022/12/13 05:07:40;;;;;;;11.90;8.05;;;-1.10;99.90;;;;;;4978781;28;20245;-84
2022/12/13 05:10:10;;;;;;;13.90;10.35;;;-1.10;99.90;;;;;;4975525;28;20265;-86
2022/12/13 05:13:00;;;;;;;17.42;11.45;;;-1.10;99.90;;;;;;4976604;28;20203;-84
2022/12/13 05:15:29;;;;;;;18.17;11.60;;;-1.20;99.90;;;;;;4973379;28;20361;-83
2022/12/13 05:18:01;;;;;;;16.45;10.70;;;-1.30;99.90;;;;;;4977536;28;20679;-84
2022/12/13 05:20:40;;;;;;;15.98;11.43;;;-1.20;99.90;;;;;;4975343;28;20261;-84
2022/12/13 05:23:11;;;;;;;15.80;10.35;;;-1.10;99.90;;;;;;4965399;28;20411;-86
2022/12/13 05:25:39;;;;;;;13.07;10.40;;;-1.10;99.90;;;;;;4979161;28;20202;-86
2022/12/13 05:28:06;;;;;;;14.40;11.90;;;-1.00;99.90;;;;;;4976431;28;20198;-83
2022/12/13 05:30:54;;;;;;;16.73;11.27;;;-1.10;99.90;;;;;;4975600;28;20321;-83
2022/12/13 05:33:23;;;;;;;16.85;12.30;;;-1.10;99.90;;;;;;4982568;28;20301;-83
2022/12/13 05:35:52;;;;;;;17.08;12.00;;;-1.10;99.90;;;;;;4980607;28;20444;-84
2022/12/13 05:38:27;;;;;;;20.63;12.77;;;-1.00;99.90;;;;;;4982606;28;20202;-82
2022/12/13 05:40:57;;;;;;;20.58;14.77;;;-1.10;99.90;;;;;;4987914;28;20202;-84
2022/12/13 05:43:28;;;;;;;18.27;12.02;;;-0.90;99.90;;;;;;4986766;28;20224;-85
2022/12/13 05:46:09;;;;;;;19.20;13.18;;;-1.00;99.90;;;;;;4985662;28;20222;-86
2022/12/13 05:59:19;;;;;;;21.00;14.32;;;-1.20;99.90;;;;;;5563512;23;20229;-90
2022/12/13 06:01:49;;;;;;;17.58;12.00;;;-1.20;99.90;;;;;;5006071;28;20234;-90
2022/12/13 06:04:17;;;;;;;19.30;12.48;;;-1.30;99.90;;;;;;5233332;22;20229;-89
2022/12/13 06:31:01;;;;;;;21.05;14.10;;;-0.90;99.90;;;;;;4990864;28;20195;-88
2022/12/13 06:36:07;;;;;;;16.77;13.70;;;-1.00;99.90;;;;;;5334635;22;20444;-88
2022/12/13 06:49:22;;;;;;;15.27;10.93;;;-1.20;99.90;;;;;;5418721;22;20531;-87
2022/12/13 06:54:41;;;;;;;20.42;15.38;;;-1.50;99.90;;;;;;5760101;22;20234;-89
2022/12/13 07:10:40;;;;;;;17.73;12.55;;;-1.20;99.90;;;;;;6027324;23;20392;-88
2022/12/13 08:38:36;;;;;;;16.83;12.25;;;-0.30;99.90;;;;;;5347115;23;20235;-85
2022/12/13 08:41:05;;;;;;;20.08;11.95;;;-0.50;99.90;;;;;;5269486;23;20305;-87
2022/12/13 09:01:58;;;;;;;13.65;10.05;;;-0.60;99.90;;;;;;4948364;29;20243;-90
2022/12/13 09:15:03;;;;;;;14.32;9.20;;;0.20;99.90;;;;;;5499185;23;20214;-88
2022/12/13 09:17:48;;;;;;;11.90;7.97;;;0.00;99.90;;;;;;5092741;23;20255;-89
2022/12/13 09:20:20;;;;;;;14.93;9.50;;;-0.20;99.90;;;;;;5427077;23;22757;-88
2022/12/13 09:33:27;;;;;;;16.90;9.60;;;0.00;99.90;;;;;;6132789;22;1239624;-89
2022/12/13 09:41:36;;;;;;;13.20;8.57;;;0.00;99.90;;;;;;6234640;22;20201;-88
2022/12/13 09:44:18;;;;;;;15.75;9.25;;;0.00;99.90;;;;;;6238841;23;20206;-87
2022/12/13 09:47:03;;;;;;;14.40;8.57;;;0.30;99.90;;;;;;6240629;23;20481;-90
2022/12/13 09:49:41;;;;;;;12.85;9.13;;;0.20;99.90;;;;;;6234182;23;20165;-88
2022/12/13 09:52:21;;;;;;;11.05;7.15;;;0.00;99.90;;;;;;6233315;23;20167;-87
2022/12/13 09:54:55;;;;;;;16.90;8.10;;;-0.10;99.90;;;;;;6236866;23;20231;-88
2022/12/13 09:57:28;;;;;;;10.93;7.38;;;-0.20;99.90;;;;;;6235930;23;20159;-90
2022/12/13 10:00:04;;;;;;;11.75;8.32;;;-0.30;99.90;;;;;;6237726;23;20215;-86
2022/12/13 10:07:54;;;;;;;12.23;8.10;;;0.10;99.90;;;;;;6235339;22;20257;-85
2022/12/13 10:10:21;;;;;;;19.17;9.85;;;0.30;99.90;;;;;;6233898;23;20167;-89
2022/12/13 10:19:37;;;;;;;9.43;7.75;;;0.60;99.90;;;;;;6217350;22;20302;-85
2022/12/13 10:22:08;;;;;;;9.57;7.47;;;0.50;99.90;;;;;;6231310;22;20203;-87
2022/12/13 10:25:04;;;;;;;10.68;7.60;;;0.80;99.90;;;;;;6206926;23;20203;-88
2022/12/13 10:27:40;;;;;;;11.63;7.22;;;0.50;99.90;;;;;;6205456;23;20199;-86
2022/12/13 10:30:15;;;;;;;10.40;6.88;;;0.60;99.90;;;;;;6202694;23;20204;-87
2022/12/13 10:32:55;;;;;;;7.82;7.00;;;0.80;99.90;;;;;;6204926;23;20211;-86
2022/12/13 10:35:33;;;;;;;12.73;6.72;;;1.10;99.90;;;;;;6197895;23;20196;-87
2022/12/13 10:51:50;;;;;;;10.07;6.47;;;1.40;99.90;;;;;;6188257;23;20278;-84
2022/12/13 10:57:10;;;;;;;10.63;6.95;;;1.80;99.90;;;;;;6201337;23;20199;-85
2022/12/13 10:59:38;;;;;;;8.48;6.78;;;1.40;99.90;;;;;;6224462;23;20180;-85
2022/12/13 11:02:38;;;;;;;10.07;6.95;;;1.00;99.90;;;;;;6222005;23;20203;-86
2022/12/13 11:05:44;;;;;;;7.43;6.38;;;0.90;99.90;;;;;;6221194;23;20194;-88
2022/12/13 11:08:14;;;;;;;9.25;8.27;;;0.60;99.90;;;;;;6226274;23;20168;-86
2022/12/13 11:13:23;;;;;;;10.55;6.65;;;0.20;99.90;;;;;;6226033;23;20218;-89
2022/12/13 11:15:55;;;;;;;10.95;7.28;;;0.00;99.90;;;;;;6211420;22;20196;-89
2022/12/13 11:18:25;;;;;;;8.63;6.10;;;-0.20;99.90;;;;;;6230218;22;20206;-84
2022/12/13 11:23:35;;;;;;;11.48;8.50;;;-0.20;99.90;;;;;;6145269;23;20227;-88
2022/12/13 11:26:13;;;;;;;17.38;8.63;;;0.00;99.90;;;;;;6233861;23;20161;-88
2022/12/13 11:28:56;;;;;;;12.23;7.68;;;-0.10;99.90;;;;;;6236390;22;20180;-87
2022/12/13 11:31:32;;;;;;;9.63;6.40;;;0.00;99.90;;;;;;6237151;23;20163;-87
2022/12/13 11:34:29;;;;;;;12.38;6.90;;;0.00;99.90;;;;;;6233054;23;20400;-88
2022/12/13 11:37:18;;;;;;;7.30;5.72;;;-0.10;99.90;;;;;;6228779;23;20263;-85
2022/12/13 11:39:52;;;;;;;7.80;7.05;;;-0.20;99.90;;;;;;6227047;23;20183;-85
2022/12/13 11:43:07;;;;;;;7.40;6.38;;;-0.40;99.90;;;;;;6235066;23;20215;-86
2022/12/13 11:48:15;;;;;;;10.20;6.60;;;-0.60;99.90;;;;;;6230949;23;20414;-86
2022/12/13 11:53:28;;;;;;;12.10;7.20;;;-0.70;99.90;;;;;;6232693;22;20196;-86
2022/12/13 11:56:22;;;;;;;10.02;7.20;;;-0.70;99.90;;;;;;6227618;23;20168;-84
2022/12/13 11:59:06;;;;;;;12.80;7.40;;;-0.80;99.90;;;;;;6227578;23;20160;-86
2022/12/13 12:02:10;;;;;;;8.88;6.18;;;-0.80;99.90;;;;;;6226872;23;20561;-85
2022/12/13 12:04:50;;;;;;;8.35;6.32;;;-0.90;99.90;;;;;;6227270;23;20460;-89
2022/12/13 12:15:34;;;;;;;14.27;9.45;;;0.00;99.90;;;;;;6186915;22;20204;-87
2022/12/13 12:26:27;;;;;;;10.82;7.07;;;0.00;99.90;;;;;;6164249;22;20211;-86
2022/12/13 12:29:23;;;;;;;8.27;6.40;;;0.10;99.90;;;;;;6207253;23;20243;-87
2022/12/13 12:39:55;;;;;;;11.60;5.80;;;0.50;99.90;;;;;;6220082;23;20199;-87
2022/12/13 12:42:32;;;;;;;7.40;6.35;;;0.50;99.90;;;;;;6220846;23;20203;-87
2022/12/13 12:48:16;;;;;;;10.18;5.90;;;0.50;99.90;;;;;;6212495;22;20228;-86
2022/12/13 12:56:29;;;;;;;6.03;5.18;;;0.80;99.90;;;;;;6217152;23;20207;-88
2022/12/13 12:59:35;;;;;;;7.75;6.60;;;0.50;99.90;;;;;;6227238;23;20218;-89
2022/12/13 13:02:19;;;;;;;9.88;7.18;;;0.30;99.90;;;;;;6229805;23;20180;-89
2022/12/13 13:04:55;;;;;;;7.50;5.85;;;-0.10;99.90;;;;;;6226082;23;20182;-87
2022/12/13 13:12:41;;;;;;;8.73;6.75;;;-0.40;99.90;;;;;;6264815;22;20224;-89
2022/12/13 13:17:45;;;;;;;10.95;5.95;;;-0.30;99.90;;;;;;6183737;22;20190;-89
2022/12/13 15:16:38;;;;;;;23.55;13.48;;;-2.30;99.90;;;;;;6179848;23;20162;-89
2022/12/13 15:19:15;;;;;;;18.70;13.00;;;-1.30;99.90;;;;;;6152093;23;20198;-89
2022/12/13 15:22:13;;;;;;;19.20;13.63;;;-2.30;99.90;;;;;;6153875;23;20236;-89
2022/12/13 15:24:45;;;;;;;21.35;12.48;;;-2.40;99.90;;;;;;6150813;23;20157;-89
2022/12/13 15:27:14;;;;;;;24.55;15.00;;;-2.40;99.90;;;;;;6178159;23;20179;-90
2022/12/13 15:32:18;;;;;;;18.88;14.23;;;-2.40;99.90;;;;;;6205061;23;20181;-88
2022/12/13 15:37:13;;;;;;;22.67;16.60;;;-2.40;99.90;;;;;;6151067;23;20217;-90
2022/12/13 15:39:59;;;;;;;23.08;15.63;;;-2.30;99.90;;;;;;6151940;23;20161;-90
2022/12/13 15:42:38;;;;;;;18.00;14.15;;;-2.30;99.90;;;;;;6119695;23;20188;-88
2022/12/13 15:45:16;;;;;;;18.95;14.68;;;-2.30;99.90;;;;;;6118371;23;20181;-88
2022/12/13 15:47:46;;;;;;;17.58;13.23;;;-2.30;99.90;;;;;;6118157;23;20173;-91
2022/12/13 15:50:29;;;;;;;20.08;14.90;;;-2.30;99.90;;;;;;6141586;23;20182;-92
2022/12/13 15:53:16;;;;;;;23.90;16.13;;;-2.50;99.90;;;;;;6116461;23;20186;-90
2022/12/13 15:55:46;;;;;;;27.15;16.05;;;-2.50;99.90;;;;;;6117231;23;20432;-90
2022/12/13 15:58:26;;;;;;;27.65;15.50;;;-2.50;99.90;;;;;;6116209;23;20470;-89
2022/12/13 16:00:53;;;;;;;23.10;15.05;;;-2.50;99.90;;;;;;6143822;23;20306;-91
2022/12/13 16:03:25;;;;;;;23.58;15.00;;;-2.60;99.90;;;;;;6118555;23;20209;-92
2022/12/13 16:05:55;;;;;;;22.75;15.70;;;-2.60;99.90;;;;;;6122324;23;20185;-89
2022/12/13 16:08:35;;;;;;;24.75;16.35;;;-2.60;99.90;;;;;;6116826;23;20192;-89
2022/12/13 16:11:07;;;;;;;23.05;14.98;;;-2.70;99.90;;;;;;6150658;23;20197;-90
2022/12/13 16:14:16;;;;;;;30.25;20.85;;;-2.70;99.90;;;;;;6151655;23;20161;-90
2022/12/13 16:16:53;;;;;;;24.75;17.98;;;-2.80;99.90;;;;;;6150848;23;20158;-91
2022/12/13 16:19:21;;;;;;;24.15;16.83;;;-2.80;99.90;;;;;;6146202;23;20171;-91
2022/12/13 16:21:52;;;;;;;25.73;17.15;;;-2.80;99.90;;;;;;6126597;23;20201;-89
2022/12/13 16:24:21;;;;;;;21.70;15.48;;;-2.80;99.90;;;;;;6151239;23;20216;-90
2022/12/13 16:26:48;;;;;;;21.67;16.45;;;-2.90;99.90;;;;;;6126813;23;20165;-88
2022/12/13 16:29:26;;;;;;;24.33;15.93;;;-2.90;99.90;;;;;;6149182;23;20162;-88
2022/12/13 16:31:56;;;;;;;23.42;16.83;;;-3.00;99.90;;;;;;6147834;23;20262;-89
2022/12/13 16:34:38;;;;;;;26.35;17.48;;;-3.10;99.90;;;;;;6149402;23;20150;-88
2022/12/13 16:37:07;;;;;;;27.27;19.58;;;-3.00;99.90;;;;;;6173315;23;20239;-89
2022/12/13 16:39:56;;;;;;;21.65;13.88;;;-2.80;99.90;;;;;;6176859;23;20170;-90
2022/12/13 16:42:24;;;;;;;23.42;16.25;;;-2.80;99.90;;;;;;6177537;23;20205;-91
2022/12/13 16:44:56;;;;;;;28.08;17.48;;;-2.80;99.90;;;;;;6180276;23;20165;-88
2022/12/13 16:47:48;;;;;;;25.63;17.77;;;-2.80;99.90;;;;;;6179216;23;20185;-87
2022/12/13 16:50:18;;;;;;;30.98;21.00;;;-2.60;99.90;;;;;;6120306;23;20180;-87
2022/12/13 16:52:46;;;;;;;37.83;21.92;;;-2.60;99.90;;;;;;6163706;23;20217;-89
2022/12/13 16:55:14;;;;;;;27.77;18.05;;;-2.30;99.90;;;;;;6165892;23;20181;-88
2022/12/13 16:57:41;;;;;;;28.83;18.23;;;-2.10;99.90;;;;;;6140124;23;20182;-90
2022/12/13 17:00:15;;;;;;;29.63;20.60;;;-2.10;99.90;;;;;;6166899;23;20177;-88
2022/12/13 17:02:42;;;;;;;47.15;21.50;;;-2.00;99.90;;;;;;6167740;23;20224;-90
2022/12/13 17:05:12;;;;;;;30.80;19.55;;;-2.00;99.90;;;;;;6166643;23;20182;-90
2022/12/13 17:07:49;;;;;;;33.75;21.92;;;-2.00;99.90;;;;;;6165541;23;20180;-87
2022/12/13 17:10:17;;;;;;;37.47;22.92;;;-2.20;99.90;;;;;;6163985;23;20185;-88
2022/12/13 17:12:44;;;;;;;36.13;21.20;;;-2.30;99.90;;;;;;6165424;23;20487;-88
2022/12/13 17:15:14;;;;;;;40.63;25.00;;;-2.30;99.90;;;;;;6165790;23;20183;-88
2022/12/13 17:17:43;;;;;;;31.65;19.48;;;-2.20;99.90;;;;;;6164779;23;20173;-88
2022/12/13 17:20:16;;;;;;;37.08;22.85;;;-2.40;99.90;;;;;;6163613;23;20187;-88
2022/12/13 17:22:45;;;;;;;35.33;22.58;;;-2.40;99.90;;;;;;6163947;23;20255;-89
2022/12/13 17:25:13;;;;;;;29.88;20.70;;;-2.40;99.90;;;;;;6165461;23;20181;-89
2022/12/13 17:27:50;;;;;;;39.13;23.00;;;-2.30;99.90;;;;;;6148224;23;20188;-89
2022/12/13 17:30:18;;;;;;;33.78;22.00;;;-2.30;99.90;;;;;;6176925;23;20185;-89
2022/12/13 17:32:46;;;;;;;31.63;20.25;;;-2.40;99.90;;;;;;6176748;23;20181;-88
2022/12/13 17:35:15;;;;;;;35.33;19.70;;;-2.30;99.90;;;;;;6178523;23;20193;-87
2022/12/13 17:37:46;;;;;;;38.20;23.63;;;-2.30;99.90;;;;;;6176694;23;20225;-88
2022/12/13 17:40:15;;;;;;;42.75;25.40;;;-2.30;99.90;;;;;;6141592;23;20542;-87
2022/12/13 17:42:52;;;;;;;40.80;25.17;;;-2.30;99.90;;;;;;6164408;23;20181;-87
2022/12/13 17:45:22;;;;;;;40.38;23.95;;;-2.30;99.90;;;;;;6166011;23;20722;-90
2022/12/13 17:47:53;;;;;;;57.63;30.02;;;-2.50;99.90;;;;;;6164678;23;20554;-87
2022/12/13 17:50:20;;;;;;;49.95;25.40;;;-2.70;99.90;;;;;;6141251;23;20177;-87
2022/12/13 17:52:49;;;;;;;51.55;26.85;;;-2.90;99.90;;;;;;6167256;23;20193;-87
2022/12/13 17:55:16;;;;;;;47.53;25.63;;;-2.90;99.90;;;;;;6165343;23;20193;-90
2022/12/13 17:57:44;;;;;;;38.65;23.67;;;-2.90;99.90;;;;;;6166621;23;20188;-89
2022/12/13 18:00:15;;;;;;;40.90;24.45;;;-2.90;99.90;;;;;;6166388;23;20173;-87
2022/12/13 18:02:44;;;;;;;35.65;22.35;;;-2.90;99.90;;;;;;6166299;23;20357;-87
2022/12/13 18:05:27;;;;;;;40.85;25.50;;;-3.00;99.90;;;;;;6167307;23;20191;-87
2022/12/13 18:07:54;;;;;;;50.05;25.42;;;-3.00;99.90;;;;;;6175772;23;20165;-87
2022/12/13 18:10:22;;;;;;;37.65;25.67;;;-3.00;99.90;;;;;;6179441;23;20177;-87
2022/12/13 18:12:58;;;;;;;39.05;23.98;;;-3.00;99.90;;;;;;6179137;23;20158;-85
2022/12/13 18:15:34;;;;;;;30.58;20.83;;;-3.50;99.90;;;;;;6169060;23;20167;-85
2022/12/13 18:18:19;;;;;;;39.47;25.85;;;-3.30;99.90;;;;;;6166394;23;20164;-85
2022/12/13 18:20:47;;;;;;;43.42;24.63;;;-3.30;99.90;;;;;;6165946;23;20189;-85
2022/12/13 18:23:15;;;;;;;38.25;23.67;;;-3.00;99.90;;;;;;6164106;23;20203;-86
2022/12/13 18:25:58;;;;;;;43.33;24.27;;;-3.10;99.90;;;;;;6163291;23;20185;-86
2022/12/13 18:28:28;;;;;;;53.25;28.15;;;-2.90;99.90;;;;;;6162302;23;20189;-86
2022/12/13 18:30:56;;;;;;;49.60;26.38;;;-2.80;99.90;;;;;;6162643;23;20184;-85
2022/12/13 18:33:27;;;;;;;45.55;26.60;;;-2.80;99.90;;;;;;6167065;23;20181;-87
2022/12/13 18:35:55;;;;;;;48.85;26.75;;;-2.60;99.90;;;;;;6164013;23;20162;-85
2022/12/13 18:38:24;;;;;;;48.10;28.35;;;-2.80;99.90;;;;;;6139731;23;20182;-87
2022/12/13 18:41:14;;;;;;;54.58;30.63;;;-2.60;99.90;;;;;;6165531;23;20418;-86
2022/12/13 18:44:01;;;;;;;54.65;28.90;;;-2.50;99.90;;;;;;6168610;23;20249;-87
2022/12/13 19:01:49;;;;;;;34.50;21.70;;;-3.00;99.90;;;;;;6175147;23;20164;-87
2022/12/13 19:11:58;;;;;;;38.63;22.73;;;-2.90;99.90;;;;;;6177829;23;20317;-86
2022/12/13 19:26:11;;;;;;;33.20;21.45;;;-3.40;99.90;;;;;;6172080;23;20201;-86
2022/12/13 19:28:40;;;;;;;35.35;23.30;;;-3.40;99.90;;;;;;6165437;23;20226;-88
2022/12/13 19:31:11;;;;;;;33.10;22.13;;;-3.80;99.90;;;;;;6173217;23;20204;-88
2022/12/13 19:33:39;;;;;;;34.60;22.70;;;-3.60;99.90;;;;;;6175333;23;20202;-87
2022/12/13 19:39:52;;;;;;;40.28;22.13;;;-3.90;99.90;;;;;;6170622;23;20185;-87
2022/12/13 19:46:54;;;;;;;32.22;20.40;;;-4.00;99.90;;;;;;6151237;23;20153;-86
2022/12/13 19:57:07;;;;;;;30.75;19.50;;;-4.20;99.90;;;;;;6140811;23;20281;-88
2022/12/13 20:03:44;;;;;;;33.40;22.17;;;-4.20;99.90;;;;;;6140760;23;20193;-86
2022/12/13 20:17:56;;;;;;;51.95;31.95;;;-5.30;99.90;;;;;;6138961;23;20145;-85
2022/12/13 20:20:24;;;;;;;58.75;35.33;;;-5.30;99.90;;;;;;6139557;23;20505;-85
2022/12/13 20:27:09;;;;;;;60.47;36.58;;;-5.40;99.90;;;;;;6079588;23;20199;-85
2022/12/13 20:29:48;;;;;;;64.25;36.75;;;-5.20;99.90;;;;;;6078473;23;20175;-87
2022/12/13 20:32:17;;;;;;;64.45;35.38;;;-5.10;99.90;;;;;;6055517;23;20489;-85
2022/12/13 20:34:44;;;;;;;63.97;33.15;;;-5.10;99.90;;;;;;6059423;23;20172;-85
2022/12/13 20:37:31;;;;;;;55.83;32.38;;;-5.20;99.90;;;;;;5959293;23;20174;-87
2022/12/13 20:40:19;;;;;;;59.00;33.50;;;-5.20;99.90;;;;;;5950482;24;20257;-85
2022/12/13 20:42:51;;;;;;;60.55;33.78;;;-5.30;99.90;;;;;;6049865;23;20464;-86
2022/12/13 20:45:39;;;;;;;52.45;34.15;;;-5.20;99.90;;;;;;6049560;23;20165;-86
2022/12/13 20:48:23;;;;;;;61.58;32.20;;;-5.10;99.90;;;;;;6048568;23;20190;-85
2022/12/13 20:51:02;;;;;;;53.92;31.92;;;-4.90;99.90;;;;;;6027182;23;20203;-85
2022/12/13 20:57:38;;;;;;;53.22;27.73;;;-4.60;99.90;;;;;;6049955;23;20227;-87
2022/12/13 21:00:07;;;;;;;44.70;30.02;;;-4.50;99.90;;;;;;6050137;23;20176;-88
2022/12/13 21:02:37;;;;;;;52.03;29.25;;;-4.30;99.90;;;;;;6027686;23;20180;-89
2022/12/13 21:05:07;;;;;;;51.53;29.13;;;-4.40;99.90;;;;;;6055708;23;20183;-87
2022/12/13 21:41:16;;;;;;;51.80;29.17;;;-4.20;99.90;;;;;;6086179;23;20177;-85